createdAt,value
2023-03-17T00:00:30.848Z,48.43
2023-03-17T00:03:26.238Z,50.57
2023-03-17T00:06:25.205Z,49.57
2023-03-17T00:09:15.834Z,47.70
2023-03-17T00:12:01.090Z,45.50
2023-03-17T00:14:46.945Z,42.87
2023-03-17T00:17:32.933Z,44.63
2023-03-17T00:20:31.146Z,43.33
2023-03-17T00:23:22.073Z,41.67
2023-03-17T00:26:07.385Z,45.60
2023-03-17T00:28:54.732Z,39.20
2023-03-17T00:31:40.196Z,37.43
2023-03-17T00:34:25.334Z,36.17
2023-03-17T00:37:12.792Z,37.63
2023-03-17T00:39:57.994Z,37.77
2023-03-17T00:42:45.572Z,36.77
2023-03-17T00:45:30.577Z,35.33
2023-03-17T00:48:18.659Z,35.00
2023-03-17T00:51:04.009Z,35.63
2023-03-17T00:53:49.178Z,30.00
2023-03-17T00:56:34.081Z,31.20
2023-03-17T00:59:30.002Z,29.13
2023-03-17T01:02:15.226Z,30.03
2023-03-17T01:05:06.226Z,33.20
2023-03-17T01:07:57.834Z,32.13
2023-03-17T01:10:43.488Z,27.37
2023-03-17T01:13:29.257Z,29.27
2023-03-17T01:16:15.585Z,28.30
2023-03-17T01:19:01.104Z,26.90
2023-03-17T01:21:47.920Z,26.40
2023-03-17T01:24:33.151Z,25.87
2023-03-17T01:27:19.258Z,25.63
2023-03-17T01:30:06.006Z,25.00
2023-03-17T01:32:52.147Z,25.97
2023-03-17T01:35:38.281Z,22.30
2023-03-17T01:38:24.495Z,24.67
2023-03-17T01:41:10.420Z,25.00
2023-03-17T01:43:55.290Z,23.93
2023-03-17T01:46:40.409Z,22.30
2023-03-17T01:49:35.331Z,21.30
2023-03-17T01:52:22.888Z,23.07
2023-03-17T01:55:13.084Z,21.07
2023-03-17T01:57:59.721Z,18.67
2023-03-17T02:00:46.431Z,18.63
2023-03-17T02:03:31.881Z,21.07
2023-03-17T02:06:18.088Z,20.27
2023-03-17T02:09:04.138Z,19.30
2023-03-17T02:11:50.588Z,16.90
2023-03-17T02:14:36.431Z,17.67
2023-03-17T02:17:23.616Z,17.53
2023-03-17T02:20:17.621Z,17.80
2023-03-17T02:23:04.290Z,17.03
2023-03-17T02:25:52.776Z,16.17
2023-03-17T02:28:39.495Z,16.77
2023-03-17T02:31:26.803Z,15.67
2023-03-17T02:34:11.821Z,14.67
2023-03-17T02:36:57.071Z,15.30
2023-03-17T02:39:42.539Z,17.40
2023-03-17T02:42:28.990Z,12.93
2023-03-17T02:45:17.412Z,14.17
2023-03-17T02:48:05.233Z,13.50
2023-03-17T02:50:50.774Z,13.17
2023-03-17T02:53:36.531Z,12.47
2023-03-17T02:56:21.480Z,13.40
2023-03-17T02:59:07.489Z,13.07
2023-03-17T03:01:53.098Z,12.17
2023-03-17T03:04:38.355Z,11.83
2023-03-17T03:07:23.671Z,11.87
2023-03-17T03:10:09.835Z,10.50
2023-03-17T03:12:54.816Z,12.83
2023-03-17T03:15:43.927Z,10.17
2023-03-17T03:18:29.213Z,10.53
2023-03-17T03:21:14.568Z,10.60
2023-03-17T03:23:59.735Z,10.47
2023-03-17T03:26:45.461Z,10.17
2023-03-17T03:29:30.613Z,9.50
2023-03-17T03:32:15.788Z,9.33
2023-03-17T03:35:01.124Z,9.00
2023-03-17T03:37:46.392Z,9.83
2023-03-17T03:40:32.314Z,9.80
2023-03-17T03:43:23.263Z,9.67
2023-03-17T03:46:09.317Z,9.50
2023-03-17T03:48:55.187Z,8.50
2023-03-17T03:51:40.583Z,8.50
2023-03-17T03:54:25.470Z,7.67
2023-03-17T03:57:10.813Z,7.77
2023-03-17T03:59:56.090Z,8.73
2023-03-17T04:02:42.122Z,7.13
2023-03-17T04:05:27.452Z,8.33
2023-03-17T04:08:12.848Z,8.63
2023-03-17T04:10:58.508Z,6.67
2023-03-17T04:13:43.675Z,6.67
2023-03-17T04:16:28.620Z,6.17
2023-03-17T04:19:13.726Z,7.77
2023-03-17T04:21:59.074Z,6.70
2023-03-17T04:24:44.280Z,6.60
2023-03-17T04:27:29.366Z,6.07
2023-03-17T04:30:16.675Z,7.43
2023-03-17T04:33:02.337Z,5.70
2023-03-17T04:35:48.045Z,5.17
2023-03-17T04:38:34.037Z,5.10
2023-03-17T04:41:19.202Z,6.20
2023-03-17T04:44:04.514Z,5.90
2023-03-17T04:46:50.048Z,5.83
2023-03-17T04:49:35.348Z,6.80
2023-03-17T04:52:20.544Z,5.20
2023-03-17T04:55:08.256Z,5.77
2023-03-17T04:57:53.609Z,5.43
2023-03-17T05:00:39.344Z,4.50
2023-03-17T05:03:27.572Z,5.37
2023-03-17T05:06:12.863Z,5.10
2023-03-17T05:08:58.084Z,4.17
2023-03-17T05:11:43.003Z,4.87
2023-03-17T05:14:28.066Z,4.83
2023-03-17T05:17:13.162Z,5.27
2023-03-17T05:19:58.238Z,4.83
2023-03-17T05:22:43.201Z,4.10
2023-03-17T05:25:28.392Z,4.00
2023-03-17T05:28:14.152Z,4.97
2023-03-17T05:30:59.920Z,4.63
2023-03-17T05:33:46.305Z,4.50
2023-03-17T05:36:33.406Z,5.67
2023-03-17T05:39:18.248Z,4.00
2023-03-17T05:42:03.229Z,3.87
2023-03-17T05:44:48.845Z,5.67
2023-03-17T05:47:34.441Z,3.87
2023-03-17T05:50:19.929Z,4.87
2023-03-17T05:53:06.310Z,5.60
2023-03-17T05:55:52.470Z,3.53
2023-03-17T05:58:37.552Z,4.67
2023-03-17T06:01:22.619Z,4.63
2023-03-17T06:04:07.769Z,3.20
2023-03-17T06:06:53.031Z,4.03
2023-03-17T06:09:38.717Z,5.20
2023-03-17T06:12:23.896Z,3.47
2023-03-17T06:15:09.715Z,3.87
2023-03-17T06:17:55.111Z,3.40
2023-03-17T06:20:41.443Z,3.33
2023-03-17T06:23:26.908Z,3.37
2023-03-17T06:26:11.866Z,4.50
2023-03-17T06:28:57.556Z,3.00
2023-03-17T06:31:43.175Z,4.00
2023-03-17T06:34:28.083Z,3.43
2023-03-17T06:37:13.225Z,2.90
2023-03-17T06:39:59.156Z,2.70
2023-03-17T06:42:44.428Z,2.77
2023-03-17T06:45:30.450Z,2.67
2023-03-17T06:48:15.741Z,3.27
2023-03-17T06:51:01.878Z,2.90
2023-03-17T06:53:46.965Z,3.50
2023-03-17T06:56:32.625Z,2.90
2023-03-17T06:59:21.811Z,3.57
2023-03-17T07:02:07.451Z,3.70
2023-03-17T07:04:58.276Z,2.70
2023-03-17T07:07:44.631Z,2.40
2023-03-17T07:10:30.322Z,2.63
2023-03-17T07:13:15.617Z,3.63
2023-03-17T07:16:00.920Z,2.37
2023-03-17T07:18:46.178Z,2.00
2023-03-17T07:21:31.477Z,2.70
2023-03-17T07:24:16.345Z,3.17
2023-03-17T07:27:01.637Z,2.37
2023-03-17T07:29:47.325Z,3.90
2023-03-17T07:32:33.116Z,2.50
2023-03-17T07:35:19.254Z,5.83
2023-03-17T07:38:05.186Z,3.27
2023-03-17T07:40:50.437Z,2.30
2023-03-17T07:43:35.863Z,2.77
2023-03-17T07:46:21.885Z,3.17
2023-03-17T07:49:09.189Z,3.63
2023-03-17T07:51:54.455Z,2.80
2023-03-17T07:54:42.951Z,2.20
2023-03-17T07:57:28.709Z,2.50
2023-03-17T08:00:15.883Z,2.70
2023-03-17T08:03:09.794Z,2.97
2023-03-17T08:05:57.425Z,2.60
2023-03-17T08:08:42.621Z,3.30
2023-03-17T08:11:29.434Z,3.23
2023-03-17T08:14:15.511Z,2.20
2023-03-17T08:17:00.822Z,2.27
2023-03-17T08:19:46.104Z,2.20
2023-03-17T08:22:31.552Z,1.77
2023-03-17T08:25:17.772Z,2.00
2023-03-17T08:28:03.567Z,2.27
2023-03-17T08:30:50.718Z,2.00
2023-03-17T08:33:36.259Z,2.63
2023-03-17T08:36:21.776Z,1.60
2023-03-17T08:39:06.731Z,2.07
2023-03-17T08:41:51.993Z,2.27
2023-03-17T08:44:37.229Z,1.80
2023-03-17T08:47:23.487Z,2.40
2023-03-17T08:50:15.423Z,2.23
2023-03-17T08:53:01.647Z,2.23
2023-03-17T08:55:46.835Z,2.10
2023-03-17T08:58:32.086Z,2.90
2023-03-17T09:01:18.024Z,1.80
2023-03-17T09:04:03.811Z,2.77
2023-03-17T09:07:02.957Z,2.73
2023-03-17T09:09:48.716Z,2.20
2023-03-17T09:12:34.421Z,1.90
2023-03-17T09:15:21.316Z,2.07
2023-03-17T09:18:07.929Z,2.00
2023-03-17T09:20:53.365Z,1.80
2023-03-17T09:23:38.708Z,1.70
2023-03-17T09:26:25.110Z,1.70
2023-03-17T09:29:10.443Z,1.97
2023-03-17T09:31:57.041Z,2.17
2023-03-17T09:34:42.131Z,1.87
2023-03-17T09:37:27.650Z,2.33
2023-03-17T09:40:17.272Z,1.67
2023-03-17T09:43:21.107Z,2.00
2023-03-17T09:46:27.150Z,1.90
2023-03-17T09:49:22.911Z,2.47
2023-03-17T09:52:14.755Z,2.03
2023-03-17T09:55:01.213Z,3.33
2023-03-17T09:57:47.427Z,1.40
2023-03-17T10:00:32.879Z,1.70
2023-03-17T10:03:18.635Z,2.43
2023-03-17T10:06:34.997Z,1.90
2023-03-17T10:09:35.638Z,2.53
2023-03-17T10:12:45.491Z,2.83
2023-03-17T10:15:41.079Z,1.90
2023-03-17T10:18:32.857Z,1.90
2023-03-17T10:21:24.265Z,1.70
2023-03-17T10:24:11.357Z,2.00
2023-03-17T10:26:59.269Z,2.20
2023-03-17T10:29:46.468Z,2.00
2023-03-17T10:32:38.898Z,1.90
2023-03-17T10:35:24.522Z,2.00
2023-03-17T10:38:20.191Z,1.60
2023-03-17T10:41:13.911Z,1.60
2023-03-17T10:43:59.453Z,2.13
2023-03-17T10:46:54.086Z,5.03
2023-03-17T10:49:39.790Z,3.60
2023-03-17T10:52:36.225Z,5.77
2023-03-17T10:55:26.430Z,1.73
2023-03-17T10:58:21.818Z,2.00
2023-03-17T11:01:20.113Z,3.00
2023-03-17T11:04:27.421Z,2.53
2023-03-17T11:07:31.169Z,3.90
2023-03-17T11:10:23.940Z,2.57
2023-03-17T11:13:10.231Z,2.30
2023-03-17T11:16:07.789Z,2.90
2023-03-17T11:18:56.480Z,4.10
2023-03-17T11:22:04.867Z,3.53
2023-03-17T11:25:04.317Z,3.67
2023-03-17T11:28:00.015Z,2.97
2023-03-17T11:31:25.781Z,3.90
2023-03-17T11:34:25.521Z,2.47
2023-03-17T11:37:16.845Z,4.60
2023-03-17T11:40:27.158Z,2.47
2023-03-17T11:43:45.317Z,2.53
2023-03-17T11:46:52.155Z,2.30
2023-03-17T11:49:38.740Z,2.20
2023-03-17T11:52:32.518Z,5.00
2023-03-17T11:55:34.329Z,2.27
2023-03-17T11:58:31.975Z,5.33
2023-03-17T12:01:22.756Z,3.43
2023-03-17T12:04:18.404Z,2.13
2023-03-17T12:07:18.134Z,4.00
2023-03-17T12:10:19.434Z,2.13
2023-03-17T12:13:18.851Z,2.17
2023-03-17T12:16:21.296Z,1.60
2023-03-17T12:19:16.448Z,1.83
2023-03-17T12:22:17.125Z,2.77
2023-03-17T12:25:20.641Z,1.87
2023-03-17T12:28:20.252Z,2.93
2023-03-17T12:31:14.376Z,1.60
2023-03-17T12:34:06.513Z,3.17
2023-03-17T12:36:52.766Z,1.80
2023-03-17T12:39:44.100Z,2.77
2023-03-17T12:42:54.959Z,1.63
2023-03-17T12:46:02.954Z,1.70
2023-03-17T12:49:27.017Z,1.77
2023-03-17T12:52:28.767Z,1.90
2023-03-17T12:55:17.540Z,2.30
2023-03-17T12:58:23.725Z,1.57
2023-03-17T13:01:39.778Z,2.33
2023-03-17T13:04:29.819Z,1.93
2023-03-17T13:07:19.591Z,2.33
2023-03-17T13:10:18.891Z,2.20
2023-03-17T13:13:23.193Z,1.40
2023-03-17T13:16:28.102Z,1.87
2023-03-17T13:19:23.225Z,2.13
2023-03-17T13:22:08.504Z,1.83
2023-03-17T13:24:53.754Z,2.03
2023-03-17T13:27:38.897Z,2.00
2023-03-17T13:30:26.802Z,5.97
2023-03-17T13:33:15.154Z,1.63
2023-03-17T13:36:26.274Z,2.07
2023-03-17T13:39:19.375Z,1.70
2023-03-17T13:42:27.883Z,2.03
2023-03-17T13:45:37.339Z,1.50
2023-03-17T13:48:36.226Z,3.07
2023-03-17T13:51:27.290Z,1.47
2023-03-17T13:54:41.159Z,2.10
2023-03-17T13:57:36.171Z,1.93
2023-03-17T14:00:27.907Z,1.60
2023-03-17T14:03:41.302Z,1.87
2023-03-17T14:06:31.314Z,2.03
2023-03-17T14:09:26.696Z,2.47
2023-03-17T14:12:19.369Z,3.47
2023-03-17T14:15:32.763Z,2.07
2023-03-17T14:18:22.698Z,1.97
2023-03-17T14:21:21.429Z,1.70
2023-03-17T14:24:31.230Z,1.67
2023-03-17T14:27:16.443Z,1.77
2023-03-17T14:30:09.702Z,1.80
2023-03-17T14:33:21.477Z,1.90
2023-03-17T14:36:10.402Z,1.70
2023-03-17T14:38:57.176Z,3.03
2023-03-17T14:41:42.300Z,2.23
2023-03-17T14:44:27.917Z,1.87
2023-03-17T14:47:20.139Z,1.70
2023-03-17T14:50:20.589Z,2.17
2023-03-17T14:53:10.707Z,1.83
2023-03-17T14:55:56.440Z,2.13
2023-03-17T14:58:45.516Z,1.93
2023-03-17T15:01:42.355Z,1.70
2023-03-17T15:04:28.865Z,2.20
2023-03-17T15:07:30.003Z,2.57
2023-03-17T15:10:17.770Z,3.53
2023-03-17T15:13:05.943Z,2.27
2023-03-17T15:15:51.616Z,2.17
2023-03-17T15:18:37.441Z,2.03
2023-03-17T15:21:28.732Z,2.00
2023-03-17T15:24:37.075Z,1.73
2023-03-17T15:27:22.300Z,3.03
2023-03-17T15:30:07.962Z,1.93
2023-03-17T15:33:00.762Z,1.93
2023-03-17T15:35:46.529Z,2.50
2023-03-17T15:38:32.143Z,3.20
2023-03-17T15:41:17.101Z,3.37
2023-03-17T15:44:04.005Z,2.13
2023-03-17T15:46:51.116Z,1.80
2023-03-17T15:49:36.151Z,1.93
2023-03-17T15:52:27.199Z,2.00
2023-03-17T15:55:18.283Z,2.30
2023-03-17T15:58:03.363Z,2.07
2023-03-17T16:00:52.933Z,2.30
2023-03-17T16:03:41.265Z,1.40
2023-03-17T16:06:26.439Z,1.63
2023-03-17T16:09:16.714Z,3.70
2023-03-17T16:12:02.222Z,2.03
2023-03-17T16:14:47.247Z,1.77
2023-03-17T16:17:32.494Z,2.00
2023-03-17T16:20:33.891Z,2.00
2023-03-17T16:23:22.009Z,2.30
2023-03-17T16:26:15.451Z,2.03
2023-03-17T16:29:01.598Z,1.63
2023-03-17T16:31:49.961Z,2.00
2023-03-17T16:34:35.590Z,1.73
2023-03-17T16:37:21.089Z,2.53
2023-03-17T16:40:32.974Z,1.97
2023-03-17T16:43:25.984Z,1.70
2023-03-17T16:46:11.631Z,1.60
2023-03-17T16:48:57.087Z,1.90
2023-03-17T16:51:42.411Z,1.90
2023-03-17T16:54:31.224Z,2.30
2023-03-17T16:57:16.429Z,1.90
2023-03-17T17:00:01.611Z,2.53
2023-03-17T17:02:49.663Z,1.87
2023-03-17T17:05:35.752Z,1.97
2023-03-17T17:08:21.022Z,1.80
2023-03-17T17:11:06.491Z,1.90
2023-03-17T17:13:51.819Z,2.00
2023-03-17T17:16:39.926Z,2.10
2023-03-17T17:19:25.281Z,1.90
2023-03-17T17:22:11.409Z,2.17
2023-03-17T17:24:56.446Z,2.40
2023-03-17T17:27:42.996Z,2.37
2023-03-17T17:30:30.669Z,2.20
2023-03-17T17:33:16.545Z,2.63
2023-03-17T17:36:04.132Z,2.20
2023-03-17T17:38:51.235Z,2.77
2023-03-17T17:41:36.417Z,1.73
2023-03-17T17:44:21.629Z,1.73
2023-03-17T17:47:07.170Z,2.37
2023-03-17T17:49:52.885Z,2.03
2023-03-17T17:52:38.233Z,2.13
2023-03-17T17:55:23.201Z,2.53
2023-03-17T17:58:09.494Z,2.43
2023-03-17T18:00:57.184Z,2.23
2023-03-17T18:03:43.139Z,2.40
2023-03-17T18:06:28.498Z,2.17
2023-03-17T18:09:14.699Z,2.60
2023-03-17T18:11:59.916Z,2.07
2023-03-17T18:14:45.267Z,2.50
2023-03-17T18:17:32.444Z,2.33
2023-03-17T18:20:21.352Z,1.83
2023-03-17T18:23:06.772Z,2.00
2023-03-17T18:25:59.693Z,2.30
2023-03-17T18:28:45.361Z,2.13
2023-03-17T18:31:33.853Z,2.17
2023-03-17T18:34:24.670Z,2.23
2023-03-17T18:37:16.686Z,2.00
2023-03-17T18:40:14.336Z,2.23
2023-03-17T18:43:01.539Z,2.40
2023-03-17T18:45:46.801Z,2.43
2023-03-17T18:48:32.527Z,2.47
2023-03-17T18:51:17.993Z,1.93
2023-03-17T18:54:04.781Z,2.17
2023-03-17T18:56:49.848Z,2.10
2023-03-17T18:59:35.011Z,3.40
2023-03-17T19:02:21.257Z,2.17
2023-03-17T19:05:07.489Z,2.70
2023-03-17T19:07:52.507Z,1.97
2023-03-17T19:10:38.057Z,2.27
2023-03-17T19:13:22.850Z,2.47
2023-03-17T19:16:09.171Z,1.90
2023-03-17T19:18:58.773Z,2.27
2023-03-17T19:21:43.989Z,3.03
2023-03-17T19:24:29.099Z,1.80
2023-03-17T19:27:14.200Z,2.57
2023-03-17T19:29:59.452Z,1.90
2023-03-17T19:32:44.665Z,1.80
2023-03-17T19:35:29.946Z,1.87
2023-03-17T19:38:15.048Z,1.90
2023-03-17T19:41:00.271Z,2.07
2023-03-17T19:43:45.593Z,2.60
2023-03-17T19:46:30.856Z,2.20
2023-03-17T19:49:16.504Z,2.07
2023-03-17T19:52:02.168Z,3.33
2023-03-17T19:54:47.427Z,2.00
2023-03-17T19:57:32.816Z,2.10
2023-03-17T20:00:18.347Z,2.23
2023-03-17T20:03:03.551Z,1.97
2023-03-17T20:05:51.842Z,2.10
2023-03-17T20:08:37.078Z,2.33
2023-03-17T20:11:22.236Z,2.07
2023-03-17T20:14:07.972Z,1.97
2023-03-17T20:16:53.577Z,2.07
2023-03-17T20:19:39.465Z,2.23
2023-03-17T20:22:24.913Z,2.17
2023-03-17T20:25:10.603Z,2.30
2023-03-17T20:27:55.821Z,2.20
2023-03-17T20:30:43.781Z,2.80
2023-03-17T20:33:29.377Z,2.00
2023-03-17T20:36:14.334Z,1.87
2023-03-17T20:38:59.809Z,2.00
2023-03-17T20:41:54.201Z,1.90
2023-03-17T20:44:39.116Z,2.33
2023-03-17T20:47:24.074Z,2.27
2023-03-17T20:50:09.969Z,2.10
2023-03-17T20:52:55.357Z,1.90
2023-03-17T20:55:42.726Z,2.50
2023-03-17T20:58:29.019Z,2.20
2023-03-17T21:01:16.458Z,1.90
2023-03-17T21:04:01.646Z,2.27
2023-03-17T21:06:47.386Z,2.20
2023-03-17T21:09:32.562Z,2.20
2023-03-17T21:12:19.868Z,1.83
2023-03-17T21:15:07.823Z,2.00
2023-03-17T21:17:53.601Z,2.03
2023-03-17T21:20:38.517Z,1.80
2023-03-17T21:23:23.762Z,2.00
2023-03-17T21:26:09.521Z,1.90
2023-03-17T21:28:56.407Z,2.30
2023-03-17T21:31:42.355Z,1.93
2023-03-17T21:34:28.939Z,2.27
2023-03-17T21:37:15.963Z,2.00
2023-03-17T21:40:01.177Z,2.20
2023-03-17T21:42:46.188Z,1.90
2023-03-17T21:45:31.653Z,2.20
2023-03-17T21:48:17.627Z,2.00
2023-03-17T21:51:02.551Z,1.93
2023-03-17T21:53:47.875Z,1.90
2023-03-17T21:56:33.468Z,2.20
2023-03-17T21:59:18.467Z,1.90
2023-03-17T22:02:03.729Z,2.40
2023-03-17T22:04:49.951Z,2.30
2023-03-17T22:07:35.533Z,2.00
2023-03-17T22:10:21.469Z,2.30
2023-03-17T22:13:06.541Z,2.10
2023-03-17T22:15:52.436Z,2.27
2023-03-17T22:18:38.242Z,2.00
2023-03-17T22:21:23.542Z,2.00
2023-03-17T22:24:08.631Z,2.03
2023-03-17T22:26:54.090Z,1.90
2023-03-17T22:29:39.502Z,2.10
2023-03-17T22:32:24.746Z,2.20
2023-03-17T22:35:09.599Z,1.90
2023-03-17T22:37:54.598Z,2.07
2023-03-17T22:40:39.676Z,2.40
2023-03-17T22:43:24.911Z,1.80
2023-03-17T22:46:10.978Z,2.10
2023-03-17T22:48:56.186Z,2.33
2023-03-17T22:51:41.239Z,2.27
2023-03-17T22:54:26.937Z,2.10
2023-03-17T22:57:12.109Z,2.33
2023-03-17T22:59:58.263Z,2.10
2023-03-17T23:02:44.746Z,2.13
2023-03-17T23:05:29.972Z,1.93
2023-03-17T23:08:15.310Z,2.30
2023-03-17T23:11:02.873Z,2.20
2023-03-17T23:13:48.645Z,2.23
2023-03-17T23:16:34.020Z,2.30
2023-03-17T23:19:19.650Z,1.70
2023-03-17T23:22:04.674Z,2.03
2023-03-17T23:24:50.306Z,2.40
2023-03-17T23:27:35.957Z,1.97
2023-03-17T23:30:21.213Z,2.10
2023-03-17T23:33:07.545Z,2.10
2023-03-17T23:35:53.095Z,1.87
2023-03-17T23:38:38.295Z,2.00
2023-03-17T23:41:23.913Z,2.30
2023-03-17T23:44:09.769Z,2.00
2023-03-17T23:46:55.006Z,1.77
2023-03-17T23:49:40.080Z,2.10
2023-03-17T23:52:25.592Z,2.10
2023-03-17T23:55:12.156Z,2.13
2023-03-17T23:57:57.580Z,2.17
